PWSweather.com
Personal Weather Stations
Station Observations
PHMDWX
Perry Hall, MD 21236

Perry Hall, MD 21236

Lat: 39.418318, Lon: -76.490039

Elevation: 305

Station Type: Davis Vantage Pro

www.phmdwx.net

High Low Average
Temperature 75.4°F24.1°C 59.8°F15.4°C 66.8°F19.3°C
Dew Point 71.1°F21.7°C 58.7°F14.8°C 65.3°F18.5°C
Winds 2.0 mph 3.2 kmh Calm Calm Calm ESECalm ESE
Wind Gusts 5.0 mph8.0 kmh -- 1.0 mph1.6 kmh
Humidity 99% 85% 95%
Pressure 29.90 in1012.5 mb 29.80 in1009.1 mb -
Precipitation 0.05 in1.3 mm - -
Hour Temp Dew Point Humidity Winds Wind Gusts Pressure Precip Precip Rate Daily Precip Total
12:00 AM 60.4°F15.8°C 59.0°F15.0°C 95% Calm Calm -- 29.90 in1012.5 mb - 0.00 in0.0 mm 0.00 in0.0 mm
12:30 AM 59.9°F15.5°C 58.8°F14.9°C 96% Calm Calm -- 29.90 in1012.5 mb - 0.00 in0.0 mm 0.00 in0.0 mm
01:00 AM 59.8°F15.4°C 58.7°F14.8°C 96% Calm Calm -- 29.89 in1012.2 mb - 0.00 in0.0 mm 0.00 in0.0 mm
01:30 AM 59.8°F15.4°C 58.9°F14.9°C 97% 0.1 mph ENE0.2 kmh ENE -- 29.89 in1012.2 mb - 0.00 in0.0 mm 0.00 in0.0 mm
02:00 AM 60.4°F15.8°C 59.5°F15.3°C 97% Calm Calm -- 29.88 in1011.9 mb - 0.00 in0.0 mm 0.00 in0.0 mm
02:30 AM 60.7°F15.9°C 59.8°F15.4°C 97% Calm Calm -- 29.88 in1011.9 mb - 0.00 in0.0 mm 0.00 in0.0 mm
03:00 AM 61.2°F16.2°C 60.3°F15.7°C 97% Calm Calm -- 29.88 in1011.9 mb - 0.00 in0.0 mm 0.00 in0.0 mm
03:30 AM 61.5°F16.4°C 60.6°F15.9°C 97% Calm Calm -- 29.88 in1011.9 mb - 0.00 in0.0 mm 0.00 in0.0 mm
04:00 AM 62.0°F16.7°C 61.1°F16.2°C 97% Calm Calm -- 29.88 in1011.9 mb - 0.00 in0.0 mm 0.00 in0.0 mm
04:30 AM 62.6°F17.0°C 61.7°F16.5°C 97% Calm Calm -- 29.88 in1011.9 mb - 0.00 in0.0 mm 0.00 in0.0 mm
05:00 AM 62.7°F17.1°C 61.8°F16.6°C 97% Calm Calm -- 29.88 in1011.9 mb - 0.00 in0.0 mm 0.00 in0.0 mm
05:30 AM 63.4°F17.4°C 62.5°F16.9°C 97% Calm Calm -- 29.88 in1011.9 mb - 0.00 in0.0 mm 0.00 in0.0 mm
06:00 AM 63.7°F17.6°C 62.8°F17.1°C 97% Calm Calm -- 29.89 in1012.2 mb - 0.00 in0.0 mm 0.00 in0.0 mm
06:30 AM 64.2°F17.9°C 63.3°F17.4°C 97% Calm Calm -- 29.90 in1012.5 mb - 0.00 in0.0 mm 0.00 in0.0 mm
07:00 AM 64.0°F17.8°C 63.2°F17.3°C 97% Calm Calm -- 29.90 in1012.5 mb - 0.01 in0.3 mm 0.01 in0.3 mm
07:30 AM 63.7°F17.6°C 62.5°F16.9°C 96% 1.5 mph ENE2.4 kmh ENE 3.0 mph4.8 kmh 29.90 in1012.5 mb - 0.00 in0.0 mm 0.01 in0.3 mm
08:00 AM 64.0°F17.8°C 62.8°F17.1°C 96% Calm Calm 1.0 mph1.6 kmh 29.90 in1012.5 mb - 0.01 in0.3 mm 0.02 in0.5 mm
08:30 AM 64.2°F17.9°C 63.3°F17.4°C 97% Calm Calm 1.0 mph1.6 kmh 29.90 in1012.5 mb - 0.01 in0.3 mm 0.03 in0.8 mm
09:00 AM 64.8°F18.2°C 64.2°F17.9°C 98% Calm Calm 1.0 mph1.6 kmh 29.90 in1012.5 mb - 0.01 in0.3 mm 0.04 in1.0 mm
09:30 AM 65.5°F18.6°C 64.9°F18.3°C 98% Calm Calm -- 29.89 in1012.2 mb - 0.01 in0.3 mm 0.05 in1.3 mm
10:00 AM 66.3°F19.1°C 65.7°F18.7°C 98% 0.7 mph NE1.1 kmh NE 5.0 mph8.0 kmh 29.90 in1012.5 mb - 0.00 in0.0 mm 0.05 in1.3 mm
10:30 AM 67.1°F19.5°C 66.5°F19.2°C 98% 1.2 mph NE1.9 kmh NE 2.0 mph3.2 kmh 29.89 in1012.2 mb - 0.00 in0.0 mm 0.05 in1.3 mm
11:00 AM 68.1°F20.1°C 67.2°F19.6°C 97% 2.0 mph E3.2 kmh E 5.0 mph8.0 kmh 29.88 in1011.9 mb - 0.00 in0.0 mm 0.05 in1.3 mm
11:30 AM 68.9°F20.5°C 68.0°F20.0°C 97% 0.1 mph ENE0.2 kmh ENE 1.0 mph1.6 kmh 29.87 in1011.5 mb - 0.00 in0.0 mm 0.05 in1.3 mm
12:00 PM 68.9°F20.5°C 67.7°F19.8°C 96% 0.1 mph ENE0.2 kmh ENE 1.0 mph1.6 kmh 29.88 in1011.9 mb - 0.00 in0.0 mm 0.05 in1.3 mm
12:30 PM 69.6°F20.9°C 68.4°F20.2°C 96% Calm Calm -- 29.86 in1011.2 mb - 0.00 in0.0 mm 0.05 in1.3 mm
01:00 PM 70.4°F21.3°C 68.9°F20.5°C 95% 1.0 mph ENE1.6 kmh ENE 2.0 mph3.2 kmh 29.85 in1010.8 mb - 0.00 in0.0 mm 0.05 in1.3 mm
01:30 PM 71.5°F21.9°C 69.1°F20.6°C 92% 1.1 mph ESE1.8 kmh ESE 4.0 mph6.4 kmh 29.84 in1010.5 mb - 0.00 in0.0 mm 0.05 in1.3 mm
02:00 PM 73.5°F23.1°C 70.1°F21.2°C 89% Calm Calm -- 29.83 in1010.2 mb - 0.00 in0.0 mm 0.05 in1.3 mm
02:30 PM 74.2°F23.4°C 69.4°F20.8°C 85% Calm Calm 1.0 mph1.6 kmh 29.83 in1010.2 mb - 0.00 in0.0 mm 0.05 in1.3 mm
03:00 PM 74.7°F23.7°C 69.9°F21.1°C 85% Calm Calm 1.0 mph1.6 kmh 29.82 in1009.8 mb - 0.00 in0.0 mm 0.05 in1.3 mm
03:30 PM 75.3°F24.1°C 70.5°F21.4°C 85% 0.5 mph SW0.8 kmh SW -- 29.82 in1009.8 mb - 0.00 in0.0 mm 0.05 in1.3 mm
04:00 PM 75.4°F24.1°C 70.6°F21.4°C 85% Calm Calm -- 29.81 in1009.5 mb - 0.00 in0.0 mm 0.05 in1.3 mm
04:30 PM 74.6°F23.7°C 70.5°F21.4°C 87% 0.2 mph SW0.3 kmh SW 1.0 mph1.6 kmh 29.80 in1009.1 mb - 0.00 in0.0 mm 0.05 in1.3 mm
05:00 PM 74.2°F23.4°C 71.1°F21.7°C 90% Calm Calm -- 29.80 in1009.1 mb - 0.00 in0.0 mm 0.05 in1.3 mm
05:30 PM 73.5°F23.1°C 70.7°F21.5°C 91% 0.2 mph S0.3 kmh S 1.0 mph1.6 kmh 29.80 in1009.1 mb - 0.00 in0.0 mm 0.05 in1.3 mm
06:00 PM 72.3°F22.4°C 70.2°F21.2°C 93% Calm Calm -- 29.80 in1009.1 mb - 0.00 in0.0 mm 0.05 in1.3 mm
06:30 PM 71.1°F21.7°C 69.3°F20.7°C 94% Calm Calm -- 29.80 in1009.1 mb - 0.00 in0.0 mm 0.05 in1.3 mm
07:00 PM 70.4°F21.3°C 68.9°F20.5°C 95% Calm Calm -- 29.82 in1009.8 mb - 0.00 in0.0 mm 0.05 in1.3 mm
07:30 PM 68.9°F20.5°C 67.4°F19.7°C 95% Calm Calm -- 29.82 in1009.8 mb - 0.00 in0.0 mm 0.05 in1.3 mm
08:00 PM 67.9°F19.9°C 66.7°F19.3°C 96% Calm Calm -- 29.83 in1010.2 mb - 0.00 in0.0 mm 0.05 in1.3 mm
08:30 PM 67.4°F19.7°C 66.5°F19.2°C 97% Calm Calm -- 29.83 in1010.2 mb - 0.00 in0.0 mm 0.05 in1.3 mm
09:00 PM 66.6°F19.2°C 65.7°F18.7°C 97% Calm Calm -- 29.83 in1010.2 mb - 0.00 in0.0 mm 0.05 in1.3 mm
09:30 PM 66.8°F19.3°C 66.2°F19.0°C 98% Calm Calm 1.0 mph1.6 kmh 29.82 in1009.8 mb - 0.00 in0.0 mm 0.05 in1.3 mm
10:00 PM 66.4°F19.1°C 65.8°F18.8°C 98% Calm Calm -- 29.83 in1010.2 mb - 0.00 in0.0 mm 0.05 in1.3 mm
10:30 PM 65.5°F18.6°C 64.9°F18.3°C 98% Calm Calm -- 29.83 in1010.2 mb - 0.00 in0.0 mm 0.05 in1.3 mm
11:00 PM 65.0°F18.3°C 64.4°F18.0°C 98% Calm Calm -- 29.82 in1009.8 mb - 0.00 in0.0 mm 0.05 in1.3 mm
11:30 PM 65.0°F18.3°C 64.7°F18.2°C 99% Calm Calm -- 29.82 in1009.8 mb - 0.00 in0.0 mm 0.05 in1.3 mm